Time;durP1;ratioP1;P1;durP2;ratioP2;P2;SDS_P1;SDS_P2;PMS_P1;PMS_P2;Temp;Humidity;BMP_temperature;BMP_pressure;BME280_temperature;BME280_humidity;BME280_pressure;Samples;Min_cycle;Max_cycle;Signal;HPM_P1;HPM_P2
2022/11/14 00:00:52;;;;;;;34.90;26.20;;;8.80;99.90;;;;;;5033583;28;20625;-54
2022/11/14 00:03:38;;;;;;;35.93;25.53;;;8.80;99.90;;;;;;5039046;28;20233;-53
2022/11/14 00:06:26;;;;;;;37.13;26.57;;;8.80;99.90;;;;;;5054169;28;20269;-53
2022/11/14 00:09:13;;;;;;;37.43;26.33;;;8.70;99.90;;;;;;5053649;28;20231;-54
2022/11/14 00:11:59;;;;;;;32.90;24.93;;;8.70;99.90;;;;;;5053264;28;20774;-53
2022/11/14 00:14:46;;;;;;;36.03;25.87;;;8.60;99.90;;;;;;5053040;28;20818;-55
2022/11/14 00:17:32;;;;;;;35.43;26.47;;;8.60;99.90;;;;;;5052999;28;20238;-55
2022/11/14 00:20:19;;;;;;;36.50;26.47;;;8.60;99.90;;;;;;5053204;28;20306;-56
2022/11/14 00:23:06;;;;;;;39.10;26.93;;;8.60;99.90;;;;;;5053393;28;20270;-53
2022/11/14 00:25:53;;;;;;;35.63;25.20;;;8.60;99.90;;;;;;5053164;28;20231;-54
2022/11/14 00:28:40;;;;;;;36.63;27.07;;;8.60;99.90;;;;;;5052792;28;20235;-55
2022/11/14 00:31:26;;;;;;;39.10;26.53;;;8.60;99.90;;;;;;5052628;28;20734;-55
2022/11/14 00:34:13;;;;;;;37.40;27.40;;;8.60;99.90;;;;;;5053241;28;20246;-55
2022/11/14 00:36:59;;;;;;;37.17;25.63;;;8.60;99.90;;;;;;5051444;28;20242;-54
2022/11/14 00:39:47;;;;;;;38.60;27.27;;;8.60;99.90;;;;;;5052753;28;21659;-53
2022/11/14 00:42:34;;;;;;;41.07;28.37;;;8.50;99.90;;;;;;5052685;28;20313;-54
2022/11/14 00:45:21;;;;;;;37.33;26.87;;;8.50;99.90;;;;;;5053013;28;20231;-54
2022/11/14 00:48:07;;;;;;;42.57;27.60;;;8.50;99.90;;;;;;5052638;28;20309;-54
2022/11/14 00:50:53;;;;;;;35.27;25.57;;;8.40;99.90;;;;;;5052896;28;20234;-55
2022/11/14 00:53:40;;;;;;;38.40;26.53;;;8.40;99.90;;;;;;5052783;28;20223;-53
2022/11/14 00:56:28;;;;;;;41.03;27.80;;;8.50;99.90;;;;;;5052514;28;20239;-55
2022/11/14 00:59:15;;;;;;;40.57;27.40;;;8.50;99.90;;;;;;5052861;28;20247;-55
2022/11/14 01:02:01;;;;;;;39.10;28.43;;;8.40;99.90;;;;;;5052459;28;20241;-55
2022/11/14 01:04:48;;;;;;;42.40;27.37;;;8.40;99.90;;;;;;5047563;28;20242;-55
2022/11/14 01:07:34;;;;;;;38.07;27.33;;;8.30;99.90;;;;;;5052686;28;20780;-52
2022/11/14 01:10:21;;;;;;;40.93;28.80;;;8.40;99.90;;;;;;5052921;28;20226;-54
2022/11/14 01:13:09;;;;;;;38.77;25.60;;;8.40;99.90;;;;;;5052576;28;20230;-54
2022/11/14 01:16:00;;;;;;;37.43;26.73;;;8.40;99.90;;;;;;5052300;28;20242;-53
2022/11/14 01:18:47;;;;;;;40.93;27.50;;;8.30;99.90;;;;;;5052107;28;20239;-52
2022/11/14 01:21:33;;;;;;;41.03;28.03;;;8.30;99.90;;;;;;5052462;28;20237;-53
2022/11/14 01:24:20;;;;;;;38.63;27.73;;;8.30;99.90;;;;;;5052868;28;20230;-54
2022/11/14 01:27:06;;;;;;;38.47;26.77;;;8.30;99.90;;;;;;5052583;28;20227;-55
2022/11/14 01:29:54;;;;;;;37.73;27.17;;;8.30;99.90;;;;;;5052661;28;20230;-54
2022/11/14 01:32:41;;;;;;;38.77;27.40;;;8.30;99.90;;;;;;5055518;28;20230;-55
2022/11/14 01:35:27;;;;;;;42.40;28.23;;;8.30;99.90;;;;;;5046592;28;20226;-53
2022/11/14 01:38:15;;;;;;;37.70;26.33;;;8.30;99.90;;;;;;5032621;28;20243;-54
2022/11/14 01:41:02;;;;;;;41.07;27.43;;;8.20;99.90;;;;;;5033645;28;20232;-55
2022/11/14 01:43:49;;;;;;;41.03;27.50;;;8.30;99.90;;;;;;5047835;28;20290;-52
2022/11/14 01:46:39;;;;;;;39.87;27.23;;;8.20;99.90;;;;;;5055850;28;20726;-52
2022/11/14 01:49:31;;;;;;;40.77;26.53;;;8.30;99.90;;;;;;5061567;28;20281;-54
2022/11/14 01:52:21;;;;;;;41.07;26.90;;;8.30;99.90;;;;;;5036080;28;20355;-54
2022/11/14 01:55:10;;;;;;;38.03;26.53;;;8.30;99.90;;;;;;5036262;28;20251;-53
2022/11/14 01:57:57;;;;;;;38.70;26.37;;;8.30;99.90;;;;;;5036340;28;20255;-54
2022/11/14 02:00:44;;;;;;;39.80;27.47;;;8.30;99.90;;;;;;5035338;28;20247;-53
2022/11/14 02:03:35;;;;;;;40.13;27.83;;;8.20;99.90;;;;;;5051977;28;20285;-55
2022/11/14 02:06:25;;;;;;;40.07;27.40;;;8.30;99.90;;;;;;5054240;28;20305;-53
2022/11/14 02:09:12;;;;;;;40.73;27.47;;;8.20;99.90;;;;;;5055853;28;20349;-55
2022/11/14 02:12:02;;;;;;;40.73;27.27;;;8.20;99.90;;;;;;5055759;28;20246;-54
2022/11/14 02:14:52;;;;;;;40.83;28.03;;;8.20;99.90;;;;;;5055476;28;20786;-54
2022/11/14 02:17:40;;;;;;;39.67;27.17;;;8.10;99.90;;;;;;5061230;28;20231;-52
2022/11/14 02:20:32;;;;;;;40.50;27.53;;;8.10;99.90;;;;;;5049595;28;20579;-53
2022/11/14 02:23:26;;;;;;;39.47;26.93;;;8.20;99.90;;;;;;5055386;28;20238;-55
2022/11/14 02:26:13;;;;;;;36.40;26.37;;;8.20;99.90;;;;;;5074145;28;20285;-54
2022/11/14 02:28:59;;;;;;;36.10;25.63;;;8.20;99.90;;;;;;5075190;28;20226;-53
2022/11/14 02:31:46;;;;;;;39.70;26.90;;;8.20;99.90;;;;;;5074802;28;20250;-53
2022/11/14 02:34:33;;;;;;;37.97;26.27;;;8.20;99.90;;;;;;5061795;28;20239;-54
2022/11/14 02:37:21;;;;;;;37.33;26.07;;;8.20;99.90;;;;;;5048344;28;20230;-54
2022/11/14 02:40:10;;;;;;;37.80;26.40;;;8.10;99.90;;;;;;5055125;28;20763;-53
2022/11/14 02:42:56;;;;;;;36.07;25.80;;;8.10;99.90;;;;;;5058205;28;20722;-53
2022/11/14 02:45:43;;;;;;;40.00;26.87;;;8.10;99.90;;;;;;5054962;28;20243;-54
2022/11/14 02:48:29;;;;;;;40.57;26.03;;;8.10;99.90;;;;;;5061608;28;20234;-54
2022/11/14 02:51:16;;;;;;;39.57;27.30;;;8.10;99.90;;;;;;5048021;28;20710;-53
2022/11/14 02:54:04;;;;;;;36.37;25.10;;;8.00;99.90;;;;;;5057386;28;20235;-54
2022/11/14 02:56:51;;;;;;;38.27;26.33;;;8.00;99.90;;;;;;5074677;28;20237;-53
2022/11/14 02:59:37;;;;;;;39.93;23.87;;;7.90;99.90;;;;;;5074873;28;20721;-54
2022/11/14 03:02:24;;;;;;;38.90;26.37;;;8.00;99.90;;;;;;5074266;28;20352;-53
2022/11/14 03:05:10;;;;;;;40.63;27.13;;;8.00;99.90;;;;;;5056251;28;20575;-53
2022/11/14 03:07:57;;;;;;;39.17;27.03;;;8.00;99.90;;;;;;5054666;28;20350;-54
2022/11/14 03:10:45;;;;;;;40.13;26.20;;;7.90;99.90;;;;;;5054577;28;20753;-53
2022/11/14 03:13:31;;;;;;;40.77;27.03;;;8.00;99.90;;;;;;5054127;28;20222;-54
2022/11/14 03:16:18;;;;;;;38.73;26.73;;;8.00;99.90;;;;;;5047378;28;20702;-53
2022/11/14 03:19:05;;;;;;;35.90;25.23;;;8.00;99.90;;;;;;5061125;28;20246;-53
2022/11/14 03:21:51;;;;;;;39.27;26.47;;;8.00;99.90;;;;;;5054489;28;20312;-53
2022/11/14 03:24:38;;;;;;;41.07;26.57;;;8.00;99.90;;;;;;5055502;28;20274;-54
2022/11/14 03:27:25;;;;;;;40.40;26.77;;;8.00;99.90;;;;;;5054398;28;20354;-54
2022/11/14 03:30:13;;;;;;;38.80;27.00;;;8.10;99.90;;;;;;5053864;28;20301;-55
2022/11/14 03:33:00;;;;;;;39.93;26.73;;;8.00;99.90;;;;;;5054344;28;20222;-56
2022/11/14 03:35:46;;;;;;;44.30;28.30;;;8.00;99.90;;;;;;5053928;28;20235;-55
2022/11/14 03:38:33;;;;;;;40.83;27.27;;;7.90;99.90;;;;;;5053779;28;20294;-52
2022/11/14 03:41:20;;;;;;;45.97;28.30;;;8.00;99.90;;;;;;5054278;28;20362;-54
2022/11/14 03:44:08;;;;;;;40.87;28.00;;;8.00;99.90;;;;;;5056911;28;20341;-54
2022/11/14 03:46:55;;;;;;;43.97;28.23;;;8.00;99.90;;;;;;5053619;28;20738;-53
2022/11/14 03:49:43;;;;;;;40.50;26.50;;;8.00;99.90;;;;;;5053155;28;20250;-55
2022/11/14 03:52:30;;;;;;;39.93;27.03;;;8.00;99.90;;;;;;5033509;28;20236;-53
2022/11/14 03:55:16;;;;;;;42.30;28.47;;;8.00;99.90;;;;;;5063223;28;20679;-54
2022/11/14 03:58:03;;;;;;;42.83;27.60;;;7.90;99.90;;;;;;5073545;28;20233;-55
2022/11/14 04:00:52;;;;;;;43.30;27.93;;;7.90;99.90;;;;;;5073130;28;20245;-53
2022/11/14 04:03:39;;;;;;;41.77;27.13;;;7.90;99.90;;;;;;5066654;28;20607;-54
2022/11/14 04:06:26;;;;;;;43.40;28.37;;;7.80;99.90;;;;;;5053200;28;20230;-54
2022/11/14 04:09:12;;;;;;;45.30;29.10;;;7.80;99.90;;;;;;5053538;28;20239;-55
2022/11/14 04:11:59;;;;;;;40.83;27.63;;;7.90;99.90;;;;;;5053545;28;20254;-54
2022/11/14 04:14:45;;;;;;;41.70;27.17;;;7.90;99.90;;;;;;5055952;28;20260;-55
2022/11/14 04:17:33;;;;;;;41.97;28.60;;;7.90;99.90;;;;;;5053170;28;20230;-55
2022/11/14 04:20:25;;;;;;;42.43;28.33;;;7.80;99.90;;;;;;5053199;28;20726;-53
2022/11/14 04:23:12;;;;;;;42.27;27.13;;;7.90;99.90;;;;;;5053382;28;20677;-54
2022/11/14 04:25:59;;;;;;;45.63;28.10;;;7.90;99.90;;;;;;5049805;28;20293;-54
2022/11/14 04:28:45;;;;;;;40.87;27.47;;;7.90;99.90;;;;;;5052874;28;20367;-53
2022/11/14 04:31:32;;;;;;;43.07;28.27;;;7.90;99.90;;;;;;5052598;28;20314;-52
2022/11/14 04:34:20;;;;;;;47.07;29.13;;;7.90;99.90;;;;;;5052932;28;20339;-55
2022/11/14 04:37:06;;;;;;;46.50;29.13;;;7.80;99.90;;;;;;5053008;28;20246;-54
2022/11/14 04:39:57;;;;;;;42.63;28.57;;;7.90;99.90;;;;;;5053041;28;20223;-54
2022/11/14 04:42:43;;;;;;;42.93;28.30;;;7.90;99.90;;;;;;5055709;28;20257;-54
2022/11/14 04:45:30;;;;;;;42.67;28.73;;;7.90;99.90;;;;;;5052721;28;20599;-55
2022/11/14 04:48:16;;;;;;;44.30;28.90;;;7.90;99.90;;;;;;5059567;28;20222;-54
2022/11/14 04:51:04;;;;;;;49.03;30.93;;;8.00;99.90;;;;;;5052660;28;20239;-55
2022/11/14 04:53:51;;;;;;;48.20;30.20;;;7.90;99.90;;;;;;5057567;28;20234;-54
2022/11/14 04:56:38;;;;;;;42.20;27.57;;;7.90;99.90;;;;;;5056683;28;20357;-54
2022/11/14 04:59:24;;;;;;;47.57;30.33;;;7.90;99.90;;;;;;5052172;28;20231;-54
2022/11/14 05:02:11;;;;;;;46.70;29.33;;;7.90;99.90;;;;;;5052037;28;20281;-55
2022/11/14 05:04:57;;;;;;;46.80;29.57;;;7.90;99.90;;;;;;5052247;28;20254;-54
2022/11/14 05:07:45;;;;;;;47.50;30.40;;;7.90;99.90;;;;;;5052498;28;20730;-53
2022/11/14 05:10:32;;;;;;;46.50;29.43;;;7.90;99.90;;;;;;5052340;28;20722;-54
2022/11/14 05:13:19;;;;;;;46.20;29.57;;;7.80;99.90;;;;;;5055536;28;20312;-54
2022/11/14 05:16:06;;;;;;;47.23;29.73;;;7.80;99.90;;;;;;5053678;28;20238;-54
2022/11/14 05:18:53;;;;;;;48.07;30.47;;;7.80;99.90;;;;;;5063011;28;20245;-55
2022/11/14 05:21:40;;;;;;;48.00;30.70;;;7.80;99.90;;;;;;5056535;28;20580;-55
2022/11/14 05:24:28;;;;;;;47.23;30.00;;;7.90;99.90;;;;;;5056497;28;20237;-54
2022/11/14 05:27:14;;;;;;;43.30;28.63;;;7.80;99.90;;;;;;5064439;28;20304;-53
2022/11/14 05:30:01;;;;;;;45.27;29.97;;;7.80;99.90;;;;;;5076525;28;20696;-53
2022/11/14 05:32:47;;;;;;;51.30;32.00;;;7.80;99.90;;;;;;5076312;28;20238;-53
2022/11/14 05:35:34;;;;;;;47.30;30.07;;;7.90;99.90;;;;;;5051565;28;20230;-53
2022/11/14 05:38:21;;;;;;;44.47;29.87;;;7.80;99.90;;;;;;5036226;28;20712;-53
2022/11/14 05:41:11;;;;;;;46.77;29.57;;;7.90;99.90;;;;;;5036543;28;20271;-53
2022/11/14 05:43:57;;;;;;;45.13;30.53;;;7.80;99.90;;;;;;5052148;28;20238;-54
2022/11/14 05:46:44;;;;;;;45.93;29.20;;;7.80;99.90;;;;;;5056014;28;20254;-54
2022/11/14 05:49:30;;;;;;;51.77;32.03;;;7.80;99.90;;;;;;5050739;28;20230;-54
2022/11/14 05:52:17;;;;;;;43.60;29.87;;;7.80;99.90;;;;;;5036100;28;20248;-53
2022/11/14 05:55:05;;;;;;;46.73;29.90;;;7.80;99.90;;;;;;5070249;28;20307;-54
2022/11/14 05:57:52;;;;;;;46.73;30.73;;;7.80;99.90;;;;;;5067664;28;20312;-55
2022/11/14 06:00:39;;;;;;;46.97;29.70;;;7.70;99.90;;;;;;5055347;28;20264;-52
2022/11/14 06:03:39;;;;;;;44.07;24.80;;;7.70;99.90;;;;;;5055285;28;20259;-52
2022/11/14 06:06:26;;;;;;;50.67;30.53;;;7.70;99.90;;;;;;5055388;28;20234;-53
2022/11/14 06:09:12;;;;;;;47.07;30.33;;;7.70;99.90;;;;;;5055975;28;20262;-54
2022/11/14 06:11:58;;;;;;;43.30;28.00;;;7.70;99.90;;;;;;5054904;28;20231;-54
2022/11/14 06:14:47;;;;;;;47.60;29.70;;;7.70;99.90;;;;;;5058373;28;21665;-52
2022/11/14 06:17:34;;;;;;;44.67;29.37;;;7.60;99.90;;;;;;5061443;28;20237;-54
2022/11/14 06:20:20;;;;;;;45.90;31.13;;;7.70;99.90;;;;;;5056055;28;20223;-52
2022/11/14 06:23:07;;;;;;;47.87;31.63;;;7.70;99.90;;;;;;5057378;28;20230;-53
2022/11/14 06:25:59;;;;;;;48.83;31.17;;;7.70;99.90;;;;;;5056170;28;20691;-55
2022/11/14 06:28:46;;;;;;;45.20;30.17;;;7.60;99.90;;;;;;5062995;28;20223;-55
2022/11/14 06:31:33;;;;;;;47.77;30.50;;;7.70;99.90;;;;;;5056736;28;20254;-54
2022/11/14 06:34:20;;;;;;;50.77;33.07;;;7.70;99.90;;;;;;5054741;28;20247;-53
2022/11/14 06:37:06;;;;;;;49.23;31.50;;;7.60;99.90;;;;;;5055320;28;20708;-53
2022/11/14 06:39:53;;;;;;;49.33;32.33;;;7.70;99.90;;;;;;5054808;28;20234;-55
2022/11/14 06:42:39;;;;;;;49.63;31.90;;;7.70;99.90;;;;;;5054477;28;20246;-54
2022/11/14 06:45:25;;;;;;;47.83;30.60;;;7.70;99.90;;;;;;5054727;28;20588;-53
2022/11/14 06:48:13;;;;;;;49.63;31.80;;;7.70;99.90;;;;;;5061420;28;20723;-53
2022/11/14 06:51:01;;;;;;;47.57;30.10;;;7.70;99.90;;;;;;5062118;28;20239;-53
2022/11/14 06:53:47;;;;;;;49.77;30.90;;;7.70;99.90;;;;;;5054636;28;20226;-53
2022/11/14 06:56:34;;;;;;;50.53;31.00;;;7.60;99.90;;;;;;5058370;28;20309;-53
2022/11/14 06:59:21;;;;;;;52.67;32.40;;;7.70;99.90;;;;;;5056953;28;20246;-52
2022/11/14 07:02:10;;;;;;;50.67;31.67;;;7.60;99.90;;;;;;5054873;28;20234;-54
2022/11/14 07:04:58;;;;;;;50.83;30.87;;;7.70;99.90;;;;;;5060521;28;20277;-53
2022/11/14 07:07:45;;;;;;;54.23;32.43;;;7.60;99.90;;;;;;5054390;28;20234;-55
2022/11/14 07:10:31;;;;;;;51.27;31.90;;;7.60;99.90;;;;;;5054281;28;20713;-53
2022/11/14 07:13:17;;;;;;;46.50;30.53;;;7.70;99.90;;;;;;5054491;28;20230;-51
2022/11/14 07:16:05;;;;;;;52.47;32.23;;;7.70;99.90;;;;;;5046461;28;20582;-54
2022/11/14 07:18:51;;;;;;;51.77;32.60;;;7.60;99.90;;;;;;5056093;28;20235;-54
2022/11/14 07:21:40;;;;;;;50.40;31.40;;;7.60;99.90;;;;;;5056213;28;20730;-53
2022/11/14 07:24:26;;;;;;;48.33;32.10;;;7.60;99.90;;;;;;5048175;28;20282;-53
2022/11/14 07:27:13;;;;;;;46.93;30.60;;;7.60;99.90;;;;;;5054094;28;20261;-54
2022/11/14 07:29:59;;;;;;;45.27;29.87;;;7.60;99.90;;;;;;5034407;28;20235;-51
2022/11/14 07:32:46;;;;;;;43.90;28.83;;;7.50;99.90;;;;;;5053898;28;20604;-52
2022/11/14 07:35:33;;;;;;;46.20;29.07;;;7.50;99.90;;;;;;5054310;28;20580;-54
2022/11/14 07:38:20;;;;;;;46.73;29.93;;;7.50;99.90;;;;;;5053329;28;20297;-53
2022/11/14 07:41:10;;;;;;;46.30;30.40;;;7.60;99.90;;;;;;5045484;28;20312;-53
2022/11/14 07:43:56;;;;;;;48.67;30.47;;;7.50;99.90;;;;;;5058516;28;20226;-53
2022/11/14 07:46:43;;;;;;;49.10;30.47;;;7.60;99.90;;;;;;5052969;28;20310;-55
2022/11/14 07:49:29;;;;;;;45.40;28.63;;;7.60;99.90;;;;;;5053395;28;20584;-53
2022/11/14 07:52:15;;;;;;;47.70;29.83;;;7.60;99.90;;;;;;5047686;28;20223;-54
2022/11/14 07:55:03;;;;;;;47.80;28.87;;;7.50;99.90;;;;;;5052767;28;20726;-54
2022/11/14 07:57:53;;;;;;;48.50;29.37;;;7.50;99.90;;;;;;5053454;28;20227;-53
2022/11/14 08:00:39;;;;;;;46.30;29.53;;;7.50;99.90;;;;;;5056933;28;20374;-53
2022/11/14 08:03:26;;;;;;;45.30;29.17;;;7.60;99.90;;;;;;5053308;28;20243;-53
2022/11/14 08:06:14;;;;;;;47.27;29.60;;;7.60;99.90;;;;;;5053072;28;20231;-52
2022/11/14 08:09:01;;;;;;;48.33;28.70;;;7.60;99.90;;;;;;5057132;28;20234;-53
2022/11/14 08:11:48;;;;;;;47.17;29.23;;;7.60;99.90;;;;;;5053128;28;20777;-53
2022/11/14 08:14:35;;;;;;;45.20;28.73;;;7.50;99.90;;;;;;5053124;28;20231;-53
2022/11/14 08:17:22;;;;;;;45.63;28.20;;;7.50;99.90;;;;;;5056732;28;20222;-54
2022/11/14 08:20:09;;;;;;;48.87;29.47;;;7.50;99.90;;;;;;5060897;28;20711;-54
2022/11/14 08:23:02;;;;;;;51.73;29.97;;;7.40;99.90;;;;;;5052842;28;20243;-54
2022/11/14 08:25:49;;;;;;;46.93;28.67;;;7.50;99.90;;;;;;5052188;28;20321;-52
2022/11/14 08:28:37;;;;;;;47.00;29.10;;;7.50;99.90;;;;;;5055691;28;20590;-54
2022/11/14 08:31:23;;;;;;;43.60;27.97;;;7.50;99.90;;;;;;5052393;28;20825;-53
2022/11/14 08:34:10;;;;;;;44.60;27.43;;;7.60;99.90;;;;;;5055499;28;20412;-54
2022/11/14 08:36:57;;;;;;;47.77;28.90;;;7.60;99.90;;;;;;5052961;28;20232;-53
2022/11/14 08:39:43;;;;;;;46.83;28.20;;;7.60;99.90;;;;;;5055636;28;20258;-52
2022/11/14 08:42:30;;;;;;;44.80;28.13;;;7.50;99.90;;;;;;5057172;28;21287;-53
2022/11/14 08:45:18;;;;;;;49.93;30.70;;;7.50;99.90;;;;;;5059670;28;20361;-52
2022/11/14 08:48:05;;;;;;;44.77;28.20;;;7.50;99.90;;;;;;5058772;28;20711;-53
2022/11/14 08:50:51;;;;;;;44.77;27.80;;;7.40;99.90;;;;;;5053517;28;20733;-53
2022/11/14 08:53:38;;;;;;;48.43;28.67;;;7.50;99.90;;;;;;5053959;28;20235;-54
2022/11/14 08:56:24;;;;;;;46.50;28.23;;;7.50;99.90;;;;;;5054450;28;20375;-55
2022/11/14 08:59:11;;;;;;;44.90;26.87;;;7.50;99.90;;;;;;5056975;28;20324;-54
2022/11/14 09:01:59;;;;;;;46.90;26.80;;;7.50;99.90;;;;;;5056075;28;20238;-53
2022/11/14 09:04:45;;;;;;;46.97;28.00;;;7.60;99.90;;;;;;5057004;28;20241;-54
2022/11/14 09:07:32;;;;;;;46.97;28.40;;;7.70;99.90;;;;;;5054224;28;20617;-54
2022/11/14 09:10:19;;;;;;;45.93;28.27;;;7.60;99.90;;;;;;5056764;28;20276;-53
2022/11/14 09:13:06;;;;;;;46.50;29.37;;;7.70;99.90;;;;;;5055871;28;20717;-55
2022/11/14 09:15:52;;;;;;;49.37;29.93;;;7.60;99.90;;;;;;5051842;28;20284;-52
2022/11/14 09:18:40;;;;;;;49.23;29.80;;;7.70;99.90;;;;;;5052511;28;20288;-53
2022/11/14 09:21:27;;;;;;;48.67;29.33;;;7.70;99.90;;;;;;5051927;28;20302;-53
2022/11/14 09:24:13;;;;;;;49.40;29.80;;;7.70;99.90;;;;;;5053740;28;20238;-53
2022/11/14 09:27:00;;;;;;;46.40;29.33;;;7.70;99.90;;;;;;5050296;28;20258;-53
2022/11/14 09:29:46;;;;;;;52.13;30.57;;;7.70;99.90;;;;;;5052703;28;20308;-55
2022/11/14 09:32:33;;;;;;;47.67;29.83;;;7.70;99.90;;;;;;5054261;28;20234;-52
2022/11/14 09:35:21;;;;;;;49.63;28.23;;;7.70;99.90;;;;;;5052941;28;20242;-55
2022/11/14 09:38:10;;;;;;;51.03;30.60;;;7.60;99.90;;;;;;5056848;28;20265;-54
2022/11/14 09:41:04;;;;;;;50.20;30.80;;;7.70;99.90;;;;;;5058671;28;20237;-55
2022/11/14 09:44:25;;;;;;;52.20;31.20;;;7.80;99.90;;;;;;5059487;28;20273;-54
2022/11/14 09:47:16;;;;;;;56.27;30.50;;;7.80;99.90;;;;;;5026819;28;20595;-53
2022/11/14 09:50:13;;;;;;;50.47;30.40;;;7.70;99.90;;;;;;5054658;28;20303;-51
2022/11/14 09:53:07;;;;;;;50.90;30.73;;;7.70;99.90;;;;;;5051969;28;20246;-53
2022/11/14 09:55:54;;;;;;;49.53;30.07;;;7.80;99.90;;;;;;5050389;28;20231;-53
2022/11/14 09:58:41;;;;;;;45.73;30.20;;;7.80;99.90;;;;;;5053907;28;20231;-54
2022/11/14 10:01:36;;;;;;;48.47;30.17;;;7.80;99.90;;;;;;5051511;28;20784;-52
2022/11/14 10:04:33;;;;;;;48.70;30.90;;;7.80;99.90;;;;;;5058779;28;20258;-54
2022/11/14 10:07:32;;;;;;;54.23;30.83;;;7.80;99.90;;;;;;5058353;28;20238;-54
2022/11/14 10:10:37;;;;;;;50.73;31.33;;;7.70;99.90;;;;;;5061545;28;20349;-53
2022/11/14 10:13:46;;;;;;;46.80;29.23;;;7.70;99.90;;;;;;5061032;28;20357;-53
2022/11/14 10:16:41;;;;;;;45.03;29.43;;;7.80;99.90;;;;;;5057388;28;20337;-54
2022/11/14 10:19:38;;;;;;;50.60;31.20;;;7.80;99.90;;;;;;5061615;28;20321;-52
2022/11/14 10:22:46;;;;;;;57.20;32.30;;;7.70;99.90;;;;;;5060884;28;20261;-52
2022/11/14 10:25:48;;;;;;;50.97;29.27;;;7.80;99.90;;;;;;5055591;28;20361;-55
2022/11/14 10:29:04;;;;;;;49.00;30.40;;;7.80;99.90;;;;;;5056840;28;20650;-53
2022/11/14 10:32:03;;;;;;;46.00;28.30;;;7.90;99.90;;;;;;5058005;28;20251;-55
2022/11/14 10:34:54;;;;;;;50.60;29.40;;;8.00;99.90;;;;;;5055873;28;20298;-54
2022/11/14 10:37:49;;;;;;;45.50;29.53;;;8.00;99.90;;;;;;5056587;28;20250;-53
2022/11/14 10:40:41;;;;;;;46.87;29.23;;;8.00;99.90;;;;;;5056528;28;20590;-53
2022/11/14 10:43:32;;;;;;;48.07;30.60;;;8.00;99.90;;;;;;5054967;28;20230;-53
2022/11/14 10:46:22;;;;;;;44.33;29.20;;;8.00;99.90;;;;;;5058396;28;20680;-53
2022/11/14 10:49:17;;;;;;;47.73;30.13;;;8.00;99.90;;;;;;5057540;28;20235;-55
2022/11/14 10:52:11;;;;;;;47.97;31.23;;;8.10;99.90;;;;;;5056648;28;20588;-54
2022/11/14 10:55:05;;;;;;;45.90;29.27;;;8.10;99.90;;;;;;5055561;28;20276;-55
2022/11/14 10:57:53;;;;;;;46.27;28.47;;;8.20;99.90;;;;;;5053923;28;20788;-53
2022/11/14 11:00:39;;;;;;;48.33;29.60;;;8.20;99.90;;;;;;5056652;28;20268;-54
2022/11/14 11:03:42;;;;;;;45.93;29.37;;;8.20;99.90;;;;;;5057816;28;20246;-52
2022/11/14 11:06:29;;;;;;;46.30;29.03;;;8.20;99.90;;;;;;5055156;28;20230;-53
2022/11/14 11:12:43;;;;;;;42.90;28.60;;;8.30;99.90;;;;;;5061556;28;20838;-53
2022/11/14 11:15:32;;;;;;;42.00;28.33;;;8.20;99.90;;;;;;5057942;28;20712;-55
2022/11/14 11:18:27;;;;;;;47.03;30.23;;;8.30;99.90;;;;;;5057779;28;20235;-54
2022/11/14 11:21:16;;;;;;;43.40;28.30;;;8.30;99.90;;;;;;5058118;28;20348;-53
2022/11/14 11:24:03;;;;;;;43.43;28.80;;;8.50;99.90;;;;;;5059760;28;20609;-54
2022/11/14 11:27:14;;;;;;;42.47;27.67;;;8.50;99.90;;;;;;5055872;28;20281;-55
2022/11/14 11:30:08;;;;;;;44.57;28.13;;;8.60;99.90;;;;;;5057547;28;20246;-55
2022/11/14 11:32:56;;;;;;;42.93;28.23;;;8.70;99.90;;;;;;5059615;28;20629;-55
2022/11/14 11:35:45;;;;;;;44.07;27.97;;;8.70;99.90;;;;;;5052964;28;20276;-55
2022/11/14 11:38:33;;;;;;;40.70;27.13;;;8.70;99.90;;;;;;5052541;28;20749;-55
2022/11/14 11:41:25;;;;;;;39.50;27.40;;;8.70;99.90;;;;;;5053679;28;20242;-53
2022/11/14 11:44:37;;;;;;;42.07;26.50;;;8.80;99.90;;;;;;5053487;28;20679;-54
2022/11/14 11:47:26;;;;;;;40.80;27.63;;;8.80;99.90;;;;;;5055772;28;20839;-54
2022/11/14 11:50:17;;;;;;;40.47;27.23;;;8.80;99.90;;;;;;5059012;28;20273;-54
2022/11/14 11:53:16;;;;;;;38.53;26.93;;;8.90;99.90;;;;;;5058742;28;20243;-56
2022/11/14 11:56:09;;;;;;;39.23;26.97;;;8.90;99.90;;;;;;5054854;28;20251;-54
2022/11/14 11:59:03;;;;;;;41.20;27.10;;;8.90;99.90;;;;;;5058008;28;20229;-56
2022/11/14 12:01:51;;;;;;;42.27;27.50;;;9.00;99.90;;;;;;5055916;28;20588;-54
2022/11/14 12:04:38;;;;;;;42.17;27.23;;;9.00;99.90;;;;;;5057060;28;20726;-55
2022/11/14 12:07:36;;;;;;;39.13;26.60;;;9.00;99.90;;;;;;5054747;28;20305;-54
2022/11/14 12:10:27;;;;;;;41.47;26.87;;;9.10;99.90;;;;;;5057001;28;20238;-54
2022/11/14 12:14:02;;;;;;;39.50;26.83;;;9.00;99.90;;;;;;5059555;28;20223;-54
2022/11/14 12:17:06;;;;;;;38.53;26.03;;;9.00;99.90;;;;;;5055780;28;20236;-56
2022/11/14 12:20:34;;;;;;;38.17;26.37;;;8.90;99.90;;;;;;5053876;28;20222;-54
2022/11/14 12:23:56;;;;;;;36.40;26.03;;;8.90;99.90;;;;;;5052682;28;20216;-56
2022/11/14 12:27:04;;;;;;;41.93;27.30;;;9.00;99.90;;;;;;5052946;28;20214;-56
2022/11/14 12:30:08;;;;;;;34.83;24.63;;;8.90;99.90;;;;;;5051904;28;20230;-52
2022/11/14 12:33:01;;;;;;;39.53;26.77;;;8.90;99.90;;;;;;5054703;28;20270;-55
2022/11/14 12:35:51;;;;;;;42.60;29.87;;;9.00;99.90;;;;;;5053813;28;20242;-55
2022/11/14 12:38:44;;;;;;;40.07;28.13;;;9.00;99.90;;;;;;5053079;28;20234;-54
2022/11/14 12:41:36;;;;;;;36.07;26.17;;;9.00;99.90;;;;;;5052161;28;20253;-55
2022/11/14 12:44:33;;;;;;;38.20;25.97;;;9.00;99.90;;;;;;5052486;28;21329;-55
2022/11/14 12:47:22;;;;;;;38.00;25.43;;;9.00;99.90;;;;;;5052109;28;21076;-54
2022/11/14 12:50:40;;;;;;;36.33;26.63;;;8.90;99.90;;;;;;5058231;28;20263;-55
2022/11/14 12:53:43;;;;;;;38.80;27.07;;;8.90;99.90;;;;;;5058042;28;20283;-56
2022/11/14 12:56:48;;;;;;;37.00;25.50;;;8.90;99.90;;;;;;5051597;28;20231;-54
2022/11/14 12:59:51;;;;;;;37.53;25.33;;;8.90;99.90;;;;;;5055399;28;20300;-57
2022/11/14 13:03:13;;;;;;;34.73;25.10;;;9.00;99.90;;;;;;5054265;28;20242;-56
2022/11/14 13:06:03;;;;;;;34.97;24.70;;;9.00;99.90;;;;;;5053094;28;20853;-54
2022/11/14 13:09:03;;;;;;;33.87;24.97;;;9.10;99.90;;;;;;5058044;28;20702;-55
2022/11/14 13:25:04;;;;;;;37.97;26.93;;;9.30;99.90;;;;;;5050921;28;20836;-53
2022/11/14 13:27:54;;;;;;;34.17;25.13;;;9.30;99.90;;;;;;5051973;28;20312;-55
2022/11/14 13:31:17;;;;;;;37.07;25.37;;;9.40;99.90;;;;;;5052952;28;20248;-55
2022/11/14 13:34:32;;;;;;;38.27;27.03;;;9.30;99.90;;;;;;5056891;28;20234;-53
2022/11/14 13:37:35;;;;;;;33.53;24.37;;;9.30;99.90;;;;;;5056215;28;20230;-56
2022/11/14 13:40:28;;;;;;;34.83;26.17;;;9.30;99.90;;;;;;5060593;28;20420;-55
2022/11/14 13:43:22;;;;;;;37.00;27.13;;;9.30;99.90;;;;;;5062262;28;20308;-55
2022/11/14 13:46:16;;;;;;;35.70;26.33;;;9.30;99.90;;;;;;5057519;28;20807;-55
2022/11/14 13:49:22;;;;;;;36.30;25.73;;;9.40;99.90;;;;;;5056961;28;20276;-56
2022/11/14 13:52:12;;;;;;;35.47;26.43;;;9.40;99.90;;;;;;5062530;28;20828;-55
2022/11/14 13:55:00;;;;;;;36.20;26.17;;;9.30;99.90;;;;;;5057013;28;20262;-55
2022/11/14 13:57:57;;;;;;;37.27;26.50;;;9.30;99.90;;;;;;5055736;28;20247;-56
2022/11/14 14:01:00;;;;;;;33.47;25.73;;;9.40;99.90;;;;;;5058995;28;20329;-54
2022/11/14 14:04:07;;;;;;;38.37;26.27;;;9.30;99.90;;;;;;5057748;28;20660;-55
2022/11/14 14:07:05;;;;;;;34.63;25.23;;;9.30;99.90;;;;;;5057300;28;20239;-55
2022/11/14 14:10:01;;;;;;;34.90;26.10;;;9.30;99.90;;;;;;5054983;28;20589;-54
2022/11/14 14:13:04;;;;;;;33.47;25.17;;;9.40;99.90;;;;;;5061771;28;20253;-56
2022/11/14 14:16:03;;;;;;;32.20;24.63;;;9.30;99.90;;;;;;5059342;28;20737;-54
2022/11/14 14:19:02;;;;;;;37.80;26.80;;;9.30;99.90;;;;;;5060323;28;20238;-57
2022/11/14 14:21:54;;;;;;;37.67;25.60;;;9.30;99.90;;;;;;5059567;28;20433;-56
2022/11/14 14:24:52;;;;;;;30.70;23.00;;;9.30;99.90;;;;;;5061142;28;20254;-56
2022/11/14 14:27:56;;;;;;;32.80;24.07;;;9.30;99.90;;;;;;5059909;28;20229;-54
2022/11/14 14:31:04;;;;;;;35.10;24.30;;;9.30;99.90;;;;;;5059951;28;20250;-56
2022/11/14 14:33:52;;;;;;;35.57;24.23;;;9.30;99.90;;;;;;5060658;28;20242;-55
2022/11/14 14:36:49;;;;;;;33.37;23.87;;;9.20;99.90;;;;;;5059250;28;20242;-55
2022/11/14 14:39:36;;;;;;;34.90;24.37;;;9.20;99.90;;;;;;5056019;28;20337;-56
2022/11/14 14:42:22;;;;;;;33.90;24.30;;;9.20;99.90;;;;;;5050938;28;20298;-54
2022/11/14 14:45:16;;;;;;;36.43;24.97;;;9.30;99.90;;;;;;5050152;28;20336;-54
2022/11/14 14:48:11;;;;;;;36.30;25.23;;;9.20;99.90;;;;;;5048780;28;20235;-56
2022/11/14 14:50:59;;;;;;;31.07;23.70;;;9.10;99.90;;;;;;5050343;28;20230;-55